メインページ
METAR-TAF:

METAR-TAF

空港 :

ヤップ州, Yap Island, ミクロネシア

ヤップ国際空港

緯度: 09-29N, 経度: 138-05E, 海抜: 28m

現時点の気象観測

当レポートは38分前の15:52(UTC)に作成
の風 8kt
気温 28°C
湿度 89%
気圧 1010 hPa
視程: 19.3km
高度1600ftの雲はほとんどない
高度13000ftの雲は散在している
高度30000ftの千切れ雲あり

METAR: PTYA 221552Z 01008KT 12SM FEW016 SCT130 BKN300 28/26 A2982 RMK SLP100 T02750258

時間: 02:30 (16:30 UTC)

予報

当レポートは5時間10分前の11:20(UTC)に作成
予報は22日の 12時(UTC)から 23日の 12時(UTC)まで有効
変向風 5kt
視程: 10km
高度1800ftの雲はほとんどない
高度13000ftの雲は散在している
近辺でにわか雨

TAF: PTYA 221120Z 2212/2312 VRB05KT P6SM VCSH FEW018 SCT130

4,000以上の空港の気象観測と天気予報(METAR報とTAF報)

利用可能な観測所は地図上に黄色い丸と赤い丸で示す。

丸の上にカーソルを重ねると観測所名を参照できる。

次にクリックすると気象観測と天気予報を参照できる。

マップの切り替え:黒色「×」印の緑ボタンをクリックして拡大、「-」印の緑ボタンをクリックして縮小、緑色の三角印をクリックして隣りの地図に切り替え


METAR-TAF: